sensor_id;sensor_type;location;lat;lon;timestamp;P1;durP1;ratioP1;P2;durP2;ratioP2
50880;SDS011;36858;47.832;-3.800;2023-03-23T06:17:45;30.67;;;6.73;;
50880;SDS011;36858;47.832;-3.800;2023-03-23T06:20:11;28.70;;;6.10;;
50880;SDS011;36858;47.832;-3.800;2023-03-23T06:22:37;28.33;;;5.73;;
50880;SDS011;36858;47.832;-3.800;2023-03-23T06:25:08;26.87;;;7.33;;
50880;SDS011;36858;47.832;-3.800;2023-03-23T06:27:34;30.73;;;7.43;;
50880;SDS011;36858;47.832;-3.800;2023-03-23T06:30:01;29.30;;;7.37;;
50880;SDS011;36858;47.832;-3.800;2023-03-23T06:32:28;30.83;;;6.40;;
50880;SDS011;36858;47.832;-3.800;2023-03-23T06:34:54;35.97;;;7.73;;
50880;SDS011;36858;47.832;-3.800;2023-03-23T06:37:20;28.03;;;6.33;;
50880;SDS011;36858;47.832;-3.800;2023-03-23T06:39:45;36.20;;;6.23;;
50880;SDS011;36858;47.832;-3.800;2023-03-23T06:42:11;31.50;;;8.13;;
50880;SDS011;36858;47.832;-3.800;2023-03-23T06:44:37;37.83;;;8.70;;
50880;SDS011;36858;47.832;-3.800;2023-03-23T06:47:03;28.33;;;7.67;;
50880;SDS011;36858;47.832;-3.800;2023-03-23T06:49:29;35.73;;;8.90;;
50880;SDS011;36858;47.832;-3.800;2023-03-23T06:51:55;33.03;;;6.40;;
50880;SDS011;36858;47.832;-3.800;2023-03-23T06:54:25;35.00;;;8.30;;
50880;SDS011;36858;47.832;-3.800;2023-03-23T06:56:51;34.07;;;6.90;;
50880;SDS011;36858;47.832;-3.800;2023-03-23T06:59:17;39.97;;;8.13;;
50880;SDS011;36858;47.832;-3.800;2023-03-23T07:01:42;23.60;;;6.67;;
50880;SDS011;36858;47.832;-3.800;2023-03-23T07:04:08;30.37;;;8.07;;
50880;SDS011;36858;47.832;-3.800;2023-03-23T07:06:34;33.83;;;6.77;;
50880;SDS011;36858;47.832;-3.800;2023-03-23T07:08:59;35.90;;;7.07;;
50880;SDS011;36858;47.832;-3.800;2023-03-23T07:11:25;32.80;;;7.27;;
50880;SDS011;36858;47.832;-3.800;2023-03-23T07:13:51;31.83;;;7.23;;
50880;SDS011;36858;47.832;-3.800;2023-03-23T07:16:17;34.83;;;6.33;;
50880;SDS011;36858;47.832;-3.800;2023-03-23T07:18:43;30.87;;;6.87;;
50880;SDS011;36858;47.832;-3.800;2023-03-23T07:21:08;30.97;;;6.87;;
50880;SDS011;36858;47.832;-3.800;2023-03-23T07:23:35;28.83;;;6.70;;
50880;SDS011;36858;47.832;-3.800;2023-03-23T07:26:01;23.70;;;6.10;;
50880;SDS011;36858;47.832;-3.800;2023-03-23T07:28:28;23.50;;;5.97;;
50880;SDS011;36858;47.832;-3.800;2023-03-23T07:30:54;26.87;;;6.57;;
50880;SDS011;36858;47.832;-3.800;2023-03-23T07:33:20;28.47;;;7.27;;
50880;SDS011;36858;47.832;-3.800;2023-03-23T07:35:46;27.53;;;6.37;;
50880;SDS011;36858;47.832;-3.800;2023-03-23T07:38:13;28.30;;;6.67;;
50880;SDS011;36858;47.832;-3.800;2023-03-23T07:40:39;28.47;;;7.27;;
50880;SDS011;36858;47.832;-3.800;2023-03-23T07:43:05;26.93;;;6.53;;
50880;SDS011;36858;47.832;-3.800;2023-03-23T07:45:32;20.97;;;5.80;;
50880;SDS011;36858;47.832;-3.800;2023-03-23T07:47:58;27.73;;;5.37;;
50880;SDS011;36858;47.832;-3.800;2023-03-23T07:50:25;26.60;;;5.70;;
50880;SDS011;36858;47.832;-3.800;2023-03-23T07:52:53;29.13;;;7.30;;
50880;SDS011;36858;47.832;-3.800;2023-03-23T07:55:20;23.63;;;6.07;;
50880;SDS011;36858;47.832;-3.800;2023-03-23T07:57:49;26.00;;;6.17;;
50880;SDS011;36858;47.832;-3.800;2023-03-23T08:00:15;29.63;;;6.03;;
50880;SDS011;36858;47.832;-3.800;2023-03-23T08:02:45;29.20;;;6.80;;
50880;SDS011;36858;47.832;-3.800;2023-03-23T08:05:16;25.13;;;5.57;;
50880;SDS011;36858;47.832;-3.800;2023-03-23T08:07:43;23.30;;;5.47;;
50880;SDS011;36858;47.832;-3.800;2023-03-23T08:10:10;24.73;;;6.10;;
50880;SDS011;36858;47.832;-3.800;2023-03-23T08:12:37;22.20;;;6.10;;
50880;SDS011;36858;47.832;-3.800;2023-03-23T08:15:04;23.87;;;5.37;;
50880;SDS011;36858;47.832;-3.800;2023-03-23T08:17:31;24.47;;;5.70;;
50880;SDS011;36858;47.832;-3.800;2023-03-23T08:19:58;21.23;;;5.00;;
50880;SDS011;36858;47.832;-3.800;2023-03-23T08:22:24;23.20;;;5.43;;
50880;SDS011;36858;47.832;-3.800;2023-03-23T08:24:50;21.67;;;6.87;;
50880;SDS011;36858;47.832;-3.800;2023-03-23T08:27:15;27.33;;;5.90;;
50880;SDS011;36858;47.832;-3.800;2023-03-23T08:29:43;21.37;;;4.93;;
50880;SDS011;36858;47.832;-3.800;2023-03-23T08:32:10;27.00;;;5.67;;
50880;SDS011;36858;47.832;-3.800;2023-03-23T08:34:37;29.03;;;5.97;;
50880;SDS011;36858;47.832;-3.800;2023-03-23T08:37:04;27.97;;;7.03;;
50880;SDS011;36858;47.832;-3.800;2023-03-23T08:39:30;24.10;;;5.70;;
50880;SDS011;36858;47.832;-3.800;2023-03-23T08:41:56;28.13;;;5.77;;
50880;SDS011;36858;47.832;-3.800;2023-03-23T08:44:22;30.17;;;6.03;;
50880;SDS011;36858;47.832;-3.800;2023-03-23T08:46:48;24.50;;;5.87;;
50880;SDS011;36858;47.832;-3.800;2023-03-23T08:49:14;29.43;;;5.90;;
50880;SDS011;36858;47.832;-3.800;2023-03-23T08:51:40;29.37;;;7.53;;
50880;SDS011;36858;47.832;-3.800;2023-03-23T08:54:07;18.47;;;4.97;;
50880;SDS011;36858;47.832;-3.800;2023-03-23T08:56:32;20.67;;;4.57;;
50880;SDS011;36858;47.832;-3.800;2023-03-23T08:58:58;28.03;;;5.57;;
50880;SDS011;36858;47.832;-3.800;2023-03-23T09:01:24;25.17;;;5.07;;
50880;SDS011;36858;47.832;-3.800;2023-03-23T09:03:51;22.80;;;6.60;;
50880;SDS011;36858;47.832;-3.800;2023-03-23T09:06:17;19.27;;;4.70;;
50880;SDS011;36858;47.832;-3.800;2023-03-23T09:08:43;20.40;;;5.03;;
50880;SDS011;36858;47.832;-3.800;2023-03-23T09:11:09;17.87;;;5.10;;
50880;SDS011;36858;47.832;-3.800;2023-03-23T09:13:37;22.43;;;5.20;;
50880;SDS011;36858;47.832;-3.800;2023-03-23T09:16:09;23.40;;;4.73;;
50880;SDS011;36858;47.832;-3.800;2023-03-23T09:18:35;17.17;;;4.53;;
50880;SDS011;36858;47.832;-3.800;2023-03-23T09:21:02;30.97;;;4.93;;
50880;SDS011;36858;47.832;-3.800;2023-03-23T09:23:28;20.67;;;4.53;;
50880;SDS011;36858;47.832;-3.800;2023-03-23T09:25:55;20.90;;;5.17;;
50880;SDS011;36858;47.832;-3.800;2023-03-23T09:28:20;21.73;;;5.30;;
50880;SDS011;36858;47.832;-3.800;2023-03-23T09:30:46;19.00;;;4.67;;
50880;SDS011;36858;47.832;-3.800;2023-03-23T09:33:13;17.93;;;4.70;;
50880;SDS011;36858;47.832;-3.800;2023-03-23T09:35:40;22.77;;;6.13;;
50880;SDS011;36858;47.832;-3.800;2023-03-23T09:38:08;16.17;;;4.43;;
50880;SDS011;36858;47.832;-3.800;2023-03-23T09:48:52;19.20;;;4.40;;
50880;SDS011;36858;47.832;-3.800;2023-03-23T09:54:10;17.20;;;4.60;;
50880;SDS011;36858;47.832;-3.800;2023-03-23T09:56:58;13.20;;;3.40;;
50880;SDS011;36858;47.832;-3.800;2023-03-23T09:59:34;17.87;;;5.80;;
50880;SDS011;36858;47.832;-3.800;2023-03-23T10:04:45;15.47;;;4.17;;
50880;SDS011;36858;47.832;-3.800;2023-03-23T10:07:13;21.83;;;4.70;;
50880;SDS011;36858;47.832;-3.800;2023-03-23T10:09:43;16.40;;;4.90;;
50880;SDS011;36858;47.832;-3.800;2023-03-23T10:17:37;16.60;;;4.10;;
50880;SDS011;36858;47.832;-3.800;2023-03-23T10:22:42;22.67;;;4.00;;
50880;SDS011;36858;47.832;-3.800;2023-03-23T10:25:18;28.50;;;4.33;;
50880;SDS011;36858;47.832;-3.800;2023-03-23T10:27:49;33.10;;;4.87;;
50880;SDS011;36858;47.832;-3.800;2023-03-23T10:30:23;23.43;;;4.47;;
50880;SDS011;36858;47.832;-3.800;2023-03-23T10:35:33;13.80;;;3.83;;
50880;SDS011;36858;47.832;-3.800;2023-03-23T10:38:06;30.43;;;4.63;;
50880;SDS011;36858;47.832;-3.800;2023-03-23T10:40:43;18.50;;;4.87;;
50880;SDS011;36858;47.832;-3.800;2023-03-23T10:43:13;20.33;;;4.63;;
50880;SDS011;36858;47.832;-3.800;2023-03-23T10:45:39;26.67;;;4.40;;
50880;SDS011;36858;47.832;-3.800;2023-03-23T10:51:03;24.53;;;4.80;;
50880;SDS011;36858;47.832;-3.800;2023-03-23T10:53:50;24.23;;;5.43;;
50880;SDS011;36858;47.832;-3.800;2023-03-23T10:59:18;22.13;;;4.90;;
50880;SDS011;36858;47.832;-3.800;2023-03-23T11:01:47;26.27;;;6.40;;
50880;SDS011;36858;47.832;-3.800;2023-03-23T11:04:17;23.10;;;5.43;;
50880;SDS011;36858;47.832;-3.800;2023-03-23T11:06:45;25.77;;;6.47;;
50880;SDS011;36858;47.832;-3.800;2023-03-23T11:09:13;23.40;;;4.97;;
50880;SDS011;36858;47.832;-3.800;2023-03-23T11:11:43;26.40;;;6.00;;
50880;SDS011;36858;47.832;-3.800;2023-03-23T11:14:26;19.47;;;6.03;;
50880;SDS011;36858;47.832;-3.800;2023-03-23T11:17:05;21.97;;;5.00;;
50880;SDS011;36858;47.832;-3.800;2023-03-23T11:19:45;34.23;;;6.77;;
50880;SDS011;36858;47.832;-3.800;2023-03-23T11:22:23;25.53;;;5.50;;
50880;SDS011;36858;47.832;-3.800;2023-03-23T11:25:09;22.07;;;6.13;;
50880;SDS011;36858;47.832;-3.800;2023-03-23T11:27:38;24.27;;;5.33;;
50880;SDS011;36858;47.832;-3.800;2023-03-23T11:30:09;29.47;;;5.73;;
50880;SDS011;36858;47.832;-3.800;2023-03-23T11:32:35;22.20;;;5.30;;
50880;SDS011;36858;47.832;-3.800;2023-03-23T11:35:03;27.10;;;6.57;;
50880;SDS011;36858;47.832;-3.800;2023-03-23T11:37:40;22.50;;;5.63;;
50880;SDS011;36858;47.832;-3.800;2023-03-23T11:42:36;27.90;;;7.00;;
50880;SDS011;36858;47.832;-3.800;2023-03-23T11:45:25;20.57;;;5.77;;
50880;SDS011;36858;47.832;-3.800;2023-03-23T11:58:54;30.00;;;6.03;;
50880;SDS011;36858;47.832;-3.800;2023-03-23T12:01:24;24.60;;;6.40;;
50880;SDS011;36858;47.832;-3.800;2023-03-23T12:06:54;23.43;;;6.03;;
50880;SDS011;36858;47.832;-3.800;2023-03-23T12:15:24;28.77;;;6.47;;
50880;SDS011;36858;47.832;-3.800;2023-03-23T12:18:06;29.73;;;7.30;;
50880;SDS011;36858;47.832;-3.800;2023-03-23T12:20:53;27.80;;;7.80;;
50880;SDS011;36858;47.832;-3.800;2023-03-23T12:23:24;27.73;;;5.60;;
50880;SDS011;36858;47.832;-3.800;2023-03-23T12:26:03;30.37;;;6.80;;
50880;SDS011;36858;47.832;-3.800;2023-03-23T12:37:04;31.60;;;7.10;;
50880;SDS011;36858;47.832;-3.800;2023-03-23T12:45:01;30.50;;;7.03;;
50880;SDS011;36858;47.832;-3.800;2023-03-23T12:50:35;31.50;;;6.70;;
50880;SDS011;36858;47.832;-3.800;2023-03-23T12:56:05;20.67;;;5.27;;
50880;SDS011;36858;47.832;-3.800;2023-03-23T12:58:34;24.70;;;5.30;;
50880;SDS011;36858;47.832;-3.800;2023-03-23T13:01:12;25.37;;;6.03;;
50880;SDS011;36858;47.832;-3.800;2023-03-23T13:06:16;25.10;;;5.27;;
50880;SDS011;36858;47.832;-3.800;2023-03-23T13:09:03;19.73;;;5.50;;
50880;SDS011;36858;47.832;-3.800;2023-03-23T13:11:33;16.47;;;4.73;;
50880;SDS011;36858;47.832;-3.800;2023-03-23T13:14:06;18.30;;;4.23;;
50880;SDS011;36858;47.832;-3.800;2023-03-23T13:22:33;23.73;;;5.30;;
50880;SDS011;36858;47.832;-3.800;2023-03-23T13:26:08;22.00;;;4.37;;
50880;SDS011;36858;47.832;-3.800;2023-03-23T13:28:28;16.33;;;4.47;;
50880;SDS011;36858;47.832;-3.800;2023-03-23T13:31:02;23.27;;;5.47;;
50880;SDS011;36858;47.832;-3.800;2023-03-23T13:33:30;17.40;;;5.50;;
50880;SDS011;36858;47.832;-3.800;2023-03-23T13:36:02;18.50;;;4.97;;
50880;SDS011;36858;47.832;-3.800;2023-03-23T13:38:44;24.73;;;4.73;;
50880;SDS011;36858;47.832;-3.800;2023-03-23T13:41:12;15.97;;;4.10;;
50880;SDS011;36858;47.832;-3.800;2023-03-23T13:43:40;18.53;;;4.10;;
50880;SDS011;36858;47.832;-3.800;2023-03-23T13:48:46;14.90;;;4.50;;
50880;SDS011;36858;47.832;-3.800;2023-03-23T13:54:13;18.30;;;4.33;;
50880;SDS011;36858;47.832;-3.800;2023-03-23T13:56:54;19.37;;;4.23;;
50880;SDS011;36858;47.832;-3.800;2023-03-23T14:01:52;14.40;;;4.50;;
50880;SDS011;36858;47.832;-3.800;2023-03-23T14:04:19;17.03;;;4.60;;
50880;SDS011;36858;47.832;-3.800;2023-03-23T14:06:46;25.57;;;5.17;;
50880;SDS011;36858;47.832;-3.800;2023-03-23T14:09:18;18.53;;;4.63;;
50880;SDS011;36858;47.832;-3.800;2023-03-23T14:11:58;19.07;;;4.47;;
50880;SDS011;36858;47.832;-3.800;2023-03-23T14:16:53;19.43;;;4.37;;
50880;SDS011;36858;47.832;-3.800;2023-03-23T14:19:37;21.90;;;4.67;;
50880;SDS011;36858;47.832;-3.800;2023-03-23T14:22:05;18.90;;;4.37;;
50880;SDS011;36858;47.832;-3.800;2023-03-23T14:24:43;20.27;;;5.00;;
50880;SDS011;36858;47.832;-3.800;2023-03-23T14:27:10;22.57;;;4.73;;
50880;SDS011;36858;47.832;-3.800;2023-03-23T14:29:46;15.77;;;4.33;;
50880;SDS011;36858;47.832;-3.800;2023-03-23T14:32:27;15.87;;;4.23;;
50880;SDS011;36858;47.832;-3.800;2023-03-23T14:34:55;16.47;;;5.10;;
50880;SDS011;36858;47.832;-3.800;2023-03-23T14:37:21;18.23;;;3.57;;
50880;SDS011;36858;47.832;-3.800;2023-03-23T14:39:48;16.07;;;4.47;;
50880;SDS011;36858;47.832;-3.800;2023-03-23T14:42:16;14.97;;;4.33;;
50880;SDS011;36858;47.832;-3.800;2023-03-23T14:44:46;18.20;;;4.33;;
50880;SDS011;36858;47.832;-3.800;2023-03-23T14:47:16;15.80;;;3.93;;
50880;SDS011;36858;47.832;-3.800;2023-03-23T14:49:44;19.27;;;4.63;;
50880;SDS011;36858;47.832;-3.800;2023-03-23T14:52:14;20.23;;;3.87;;
50880;SDS011;36858;47.832;-3.800;2023-03-23T14:54:42;19.77;;;4.07;;
50880;SDS011;36858;47.832;-3.800;2023-03-23T14:57:18;25.67;;;5.93;;
50880;SDS011;36858;47.832;-3.800;2023-03-23T14:59:46;19.03;;;4.57;;
50880;SDS011;36858;47.832;-3.800;2023-03-23T15:02:17;23.47;;;4.53;;
50880;SDS011;36858;47.832;-3.800;2023-03-23T15:05:14;15.50;;;4.53;;
50880;SDS011;36858;47.832;-3.800;2023-03-23T15:07:45;16.67;;;4.37;;
50880;SDS011;36858;47.832;-3.800;2023-03-23T15:10:15;16.83;;;4.37;;
50880;SDS011;36858;47.832;-3.800;2023-03-23T15:12:44;12.80;;;3.77;;
50880;SDS011;36858;47.832;-3.800;2023-03-23T15:15:19;20.93;;;3.73;;
50880;SDS011;36858;47.832;-3.800;2023-03-23T15:17:50;18.53;;;4.30;;
50880;SDS011;36858;47.832;-3.800;2023-03-23T15:20:26;21.27;;;4.80;;
50880;SDS011;36858;47.832;-3.800;2023-03-23T15:22:54;23.83;;;4.00;;
50880;SDS011;36858;47.832;-3.800;2023-03-23T15:25:30;23.57;;;4.67;;
50880;SDS011;36858;47.832;-3.800;2023-03-23T15:30:30;13.03;;;3.67;;
50880;SDS011;36858;47.832;-3.800;2023-03-23T15:33:05;17.97;;;3.77;;
50880;SDS011;36858;47.832;-3.800;2023-03-23T15:35:35;16.30;;;4.30;;
50880;SDS011;36858;47.832;-3.800;2023-03-23T15:38:03;16.83;;;3.63;;
50880;SDS011;36858;47.832;-3.800;2023-03-23T15:40:37;19.80;;;3.43;;
50880;SDS011;36858;47.832;-3.800;2023-03-23T15:43:24;18.57;;;4.30;;
50880;SDS011;36858;47.832;-3.800;2023-03-23T15:48:21;13.97;;;3.40;;
50880;SDS011;36858;47.832;-3.800;2023-03-23T15:50:48;16.13;;;4.67;;
50880;SDS011;36858;47.832;-3.800;2023-03-23T15:53:36;11.93;;;3.27;;
50880;SDS011;36858;47.832;-3.800;2023-03-23T15:56:05;13.27;;;3.43;;
50880;SDS011;36858;47.832;-3.800;2023-03-23T15:58:32;14.97;;;4.03;;
50880;SDS011;36858;47.832;-3.800;2023-03-23T16:01:02;14.30;;;3.67;;
50880;SDS011;36858;47.832;-3.800;2023-03-23T16:03:38;15.77;;;3.73;;
50880;SDS011;36858;47.832;-3.800;2023-03-23T16:06:09;15.23;;;3.60;;
50880;SDS011;36858;47.832;-3.800;2023-03-23T16:08:51;17.10;;;3.07;;
50880;SDS011;36858;47.832;-3.800;2023-03-23T16:11:20;18.53;;;4.17;;
50880;SDS011;36858;47.832;-3.800;2023-03-23T16:13:47;13.87;;;3.70;;
50880;SDS011;36858;47.832;-3.800;2023-03-23T16:16:15;15.27;;;3.77;;
50880;SDS011;36858;47.832;-3.800;2023-03-23T16:18:44;17.10;;;3.83;;
50880;SDS011;36858;47.832;-3.800;2023-03-23T16:21:11;18.23;;;4.37;;
50880;SDS011;36858;47.832;-3.800;2023-03-23T16:23:38;16.87;;;3.53;;
50880;SDS011;36858;47.832;-3.800;2023-03-23T16:26:06;17.93;;;4.80;;
50880;SDS011;36858;47.832;-3.800;2023-03-23T16:28:33;17.60;;;3.43;;
50880;SDS011;36858;47.832;-3.800;2023-03-23T16:31:00;14.27;;;3.30;;
50880;SDS011;36858;47.832;-3.800;2023-03-23T16:33:26;18.50;;;3.53;;
50880;SDS011;36858;47.832;-3.800;2023-03-23T16:35:54;17.53;;;3.77;;
50880;SDS011;36858;47.832;-3.800;2023-03-23T16:38:23;19.37;;;4.27;;
50880;SDS011;36858;47.832;-3.800;2023-03-23T16:40:50;16.30;;;3.70;;
50880;SDS011;36858;47.832;-3.800;2023-03-23T16:43:17;15.10;;;3.40;;
50880;SDS011;36858;47.832;-3.800;2023-03-23T16:45:44;19.70;;;4.20;;
50880;SDS011;36858;47.832;-3.800;2023-03-23T16:48:13;21.53;;;4.93;;
50880;SDS011;36858;47.832;-3.800;2023-03-23T16:50:42;22.70;;;3.70;;
50880;SDS011;36858;47.832;-3.800;2023-03-23T16:53:10;19.10;;;3.60;;
50880;SDS011;36858;47.832;-3.800;2023-03-23T16:55:37;10.10;;;3.10;;
50880;SDS011;36858;47.832;-3.800;2023-03-23T16:58:05;14.60;;;3.70;;
50880;SDS011;36858;47.832;-3.800;2023-03-23T17:00:35;14.17;;;5.03;;
50880;SDS011;36858;47.832;-3.800;2023-03-23T17:03:04;14.00;;;3.67;;
50880;SDS011;36858;47.832;-3.800;2023-03-23T17:05:31;12.03;;;3.17;;
50880;SDS011;36858;47.832;-3.800;2023-03-23T17:07:58;13.53;;;3.50;;
50880;SDS011;36858;47.832;-3.800;2023-03-23T17:10:26;13.93;;;2.97;;
50880;SDS011;36858;47.832;-3.800;2023-03-23T17:12:54;16.80;;;3.30;;
50880;SDS011;36858;47.832;-3.800;2023-03-23T17:15:21;22.80;;;4.30;;
50880;SDS011;36858;47.832;-3.800;2023-03-23T17:17:51;12.37;;;3.70;;
50880;SDS011;36858;47.832;-3.800;2023-03-23T17:20:18;17.23;;;4.90;;
50880;SDS011;36858;47.832;-3.800;2023-03-23T17:22:45;17.73;;;4.33;;
50880;SDS011;36858;47.832;-3.800;2023-03-23T17:25:12;15.60;;;3.83;;
50880;SDS011;36858;47.832;-3.800;2023-03-23T17:27:39;15.60;;;4.37;;
50880;SDS011;36858;47.832;-3.800;2023-03-23T17:30:06;15.50;;;3.63;;
50880;SDS011;36858;47.832;-3.800;2023-03-23T17:32:34;15.87;;;3.20;;
50880;SDS011;36858;47.832;-3.800;2023-03-23T17:35:02;20.57;;;4.70;;
50880;SDS011;36858;47.832;-3.800;2023-03-23T17:37:30;19.37;;;4.63;;
50880;SDS011;36858;47.832;-3.800;2023-03-23T17:39:58;19.73;;;4.33;;
50880;SDS011;36858;47.832;-3.800;2023-03-23T17:42:25;20.23;;;5.23;;
50880;SDS011;36858;47.832;-3.800;2023-03-23T17:44:52;13.40;;;3.37;;
50880;SDS011;36858;47.832;-3.800;2023-03-23T17:47:19;24.07;;;4.07;;
50880;SDS011;36858;47.832;-3.800;2023-03-23T17:49:46;15.97;;;3.40;;
50880;SDS011;36858;47.832;-3.800;2023-03-23T17:52:13;14.10;;;4.37;;
50880;SDS011;36858;47.832;-3.800;2023-03-23T17:54:40;15.73;;;3.47;;
50880;SDS011;36858;47.832;-3.800;2023-03-23T17:57:07;15.90;;;4.37;;
50880;SDS011;36858;47.832;-3.800;2023-03-23T17:59:35;11.57;;;3.27;;
50880;SDS011;36858;47.832;-3.800;2023-03-23T18:02:02;12.30;;;2.73;;
50880;SDS011;36858;47.832;-3.800;2023-03-23T18:04:29;10.63;;;3.00;;
50880;SDS011;36858;47.832;-3.800;2023-03-23T18:06:57;9.70;;;1.93;;
50880;SDS011;36858;47.832;-3.800;2023-03-23T18:09:24;10.57;;;2.30;;
50880;SDS011;36858;47.832;-3.800;2023-03-23T18:11:51;5.87;;;2.10;;
50880;SDS011;36858;47.832;-3.800;2023-03-23T18:14:18;7.57;;;1.97;;
50880;SDS011;36858;47.832;-3.800;2023-03-23T18:16:46;3.73;;;1.63;;
50880;SDS011;36858;47.832;-3.800;2023-03-23T18:19:13;3.87;;;1.57;;
50880;SDS011;36858;47.832;-3.800;2023-03-23T18:21:41;8.10;;;1.77;;
50880;SDS011;36858;47.832;-3.800;2023-03-23T18:24:11;9.23;;;1.80;;
50880;SDS011;36858;47.832;-3.800;2023-03-23T18:26:38;7.63;;;1.70;;
50880;SDS011;36858;47.832;-3.800;2023-03-23T18:29:04;6.77;;;1.57;;
50880;SDS011;36858;47.832;-3.800;2023-03-23T18:31:31;5.33;;;1.23;;
50880;SDS011;36858;47.832;-3.800;2023-03-23T18:33:59;7.47;;;1.73;;
50880;SDS011;36858;47.832;-3.800;2023-03-23T18:36:26;8.43;;;2.20;;
50880;SDS011;36858;47.832;-3.800;2023-03-23T18:38:55;5.23;;;1.50;;
50880;SDS011;36858;47.832;-3.800;2023-03-23T18:41:22;10.20;;;3.07;;
50880;SDS011;36858;47.832;-3.800;2023-03-23T18:43:49;9.80;;;2.40;;
50880;SDS011;36858;47.832;-3.800;2023-03-23T18:46:16;5.93;;;1.80;;
50880;SDS011;36858;47.832;-3.800;2023-03-23T18:48:44;9.23;;;2.73;;
50880;SDS011;36858;47.832;-3.800;2023-03-23T18:51:11;8.27;;;1.77;;
50880;SDS011;36858;47.832;-3.800;2023-03-23T18:53:38;9.17;;;2.40;;
50880;SDS011;36858;47.832;-3.800;2023-03-23T18:56:06;8.07;;;2.10;;
50880;SDS011;36858;47.832;-3.800;2023-03-23T18:58:38;11.00;;;1.83;;
50880;SDS011;36858;47.832;-3.800;2023-03-23T19:01:06;6.10;;;1.63;;
50880;SDS011;36858;47.832;-3.800;2023-03-23T19:03:35;7.33;;;1.90;;
50880;SDS011;36858;47.832;-3.800;2023-03-23T19:06:03;5.70;;;1.77;;
50880;SDS011;36858;47.832;-3.800;2023-03-23T19:08:31;10.83;;;2.53;;
50880;SDS011;36858;47.832;-3.800;2023-03-23T19:10:59;5.73;;;2.00;;
50880;SDS011;36858;47.832;-3.800;2023-03-23T19:13:29;12.33;;;1.77;;
50880;SDS011;36858;47.832;-3.800;2023-03-23T19:15:59;6.47;;;1.73;;
50880;SDS011;36858;47.832;-3.800;2023-03-23T19:18:26;10.33;;;2.00;;
50880;SDS011;36858;47.832;-3.800;2023-03-23T19:20:54;7.67;;;2.40;;
50880;SDS011;36858;47.832;-3.800;2023-03-23T19:23:40;7.77;;;1.77;;
50880;SDS011;36858;47.832;-3.800;2023-03-23T19:26:07;14.23;;;2.40;;
50880;SDS011;36858;47.832;-3.800;2023-03-23T19:28:36;12.47;;;3.37;;
50880;SDS011;36858;47.832;-3.800;2023-03-23T19:31:05;8.70;;;1.70;;
50880;SDS011;36858;47.832;-3.800;2023-03-23T19:33:32;4.00;;;1.53;;
50880;SDS011;36858;47.832;-3.800;2023-03-23T19:35:59;7.77;;;1.70;;
50880;SDS011;36858;47.832;-3.800;2023-03-23T19:38:38;9.07;;;1.90;;
50880;SDS011;36858;47.832;-3.800;2023-03-23T19:41:05;10.87;;;2.23;;
50880;SDS011;36858;47.832;-3.800;2023-03-23T19:43:32;11.80;;;1.97;;
50880;SDS011;36858;47.832;-3.800;2023-03-23T19:45:59;10.17;;;2.20;;
50880;SDS011;36858;47.832;-3.800;2023-03-23T19:48:27;5.57;;;2.07;;
50880;SDS011;36858;47.832;-3.800;2023-03-23T19:50:55;11.63;;;2.50;;
50880;SDS011;36858;47.832;-3.800;2023-03-23T19:53:23;9.43;;;2.37;;
50880;SDS011;36858;47.832;-3.800;2023-03-23T19:55:51;13.10;;;2.10;;
50880;SDS011;36858;47.832;-3.800;2023-03-23T19:58:18;10.70;;;2.20;;
50880;SDS011;36858;47.832;-3.800;2023-03-23T20:00:46;12.20;;;3.77;;
50880;SDS011;36858;47.832;-3.800;2023-03-23T20:03:14;13.10;;;2.50;;
50880;SDS011;36858;47.832;-3.800;2023-03-23T20:05:42;11.00;;;2.47;;
50880;SDS011;36858;47.832;-3.800;2023-03-23T20:08:10;11.17;;;2.27;;
50880;SDS011;36858;47.832;-3.800;2023-03-23T20:10:40;12.17;;;3.10;;
50880;SDS011;36858;47.832;-3.800;2023-03-23T20:13:07;9.57;;;1.90;;
50880;SDS011;36858;47.832;-3.800;2023-03-23T20:15:36;7.47;;;2.07;;
50880;SDS011;36858;47.832;-3.800;2023-03-23T20:18:03;8.17;;;2.40;;
50880;SDS011;36858;47.832;-3.800;2023-03-23T20:20:32;13.27;;;2.27;;
50880;SDS011;36858;47.832;-3.800;2023-03-23T20:23:02;14.53;;;2.40;;
50880;SDS011;36858;47.832;-3.800;2023-03-23T20:25:29;8.43;;;2.07;;
50880;SDS011;36858;47.832;-3.800;2023-03-23T20:27:56;10.13;;;2.07;;
50880;SDS011;36858;47.832;-3.800;2023-03-23T20:30:23;13.03;;;2.10;;
50880;SDS011;36858;47.832;-3.800;2023-03-23T20:32:50;11.40;;;2.13;;
50880;SDS011;36858;47.832;-3.800;2023-03-23T20:35:19;9.70;;;1.90;;
50880;SDS011;36858;47.832;-3.800;2023-03-23T20:37:47;9.30;;;1.87;;
50880;SDS011;36858;47.832;-3.800;2023-03-23T20:40:15;11.37;;;2.13;;
50880;SDS011;36858;47.832;-3.800;2023-03-23T20:42:43;12.00;;;2.30;;
50880;SDS011;36858;47.832;-3.800;2023-03-23T20:45:15;12.33;;;1.93;;
50880;SDS011;36858;47.832;-3.800;2023-03-23T20:47:43;6.90;;;2.13;;
50880;SDS011;36858;47.832;-3.800;2023-03-23T20:50:11;9.53;;;2.17;;
50880;SDS011;36858;47.832;-3.800;2023-03-23T20:52:38;10.67;;;2.70;;
50880;SDS011;36858;47.832;-3.800;2023-03-23T20:55:05;11.87;;;2.90;;
50880;SDS011;36858;47.832;-3.800;2023-03-23T20:57:32;8.27;;;2.73;;
50880;SDS011;36858;47.832;-3.800;2023-03-23T21:00:00;16.10;;;2.73;;
50880;SDS011;36858;47.832;-3.800;2023-03-23T21:02:29;8.43;;;2.13;;
50880;SDS011;36858;47.832;-3.800;2023-03-23T21:04:56;6.90;;;1.77;;
50880;SDS011;36858;47.832;-3.800;2023-03-23T21:07:23;14.90;;;2.77;;
50880;SDS011;36858;47.832;-3.800;2023-03-23T21:09:53;13.67;;;3.33;;
50880;SDS011;36858;47.832;-3.800;2023-03-23T21:12:21;14.77;;;3.23;;
50880;SDS011;36858;47.832;-3.800;2023-03-23T21:14:48;12.47;;;2.67;;
50880;SDS011;36858;47.832;-3.800;2023-03-23T21:17:15;13.90;;;2.70;;
50880;SDS011;36858;47.832;-3.800;2023-03-23T21:19:42;16.57;;;3.07;;
50880;SDS011;36858;47.832;-3.800;2023-03-23T21:22:09;13.97;;;2.80;;
50880;SDS011;36858;47.832;-3.800;2023-03-23T21:24:36;15.83;;;2.80;;
50880;SDS011;36858;47.832;-3.800;2023-03-23T21:27:03;11.30;;;2.30;;
50880;SDS011;36858;47.832;-3.800;2023-03-23T21:29:30;7.53;;;2.00;;
